createdAt,value
2022-09-07T00:08:09.549Z,1016.2413183527192
2022-09-07T00:20:19.298Z,1016.2247748914413
2022-09-07T00:26:46.601Z,1016.2917211477325
2022-09-07T00:36:45.490Z,1016.1061141170242
2022-09-07T00:43:52.072Z,1016.0179785935046
2022-09-07T00:50:13.588Z,1015.9644037800701
2022-09-07T00:56:34.695Z,1016.0668979938991
2022-09-07T01:02:56.901Z,1015.934750880515
2022-09-07T01:09:18.098Z,1015.8633049181171
2022-09-07T01:15:39.619Z,1015.8775026179832
2022-09-07T01:22:01.315Z,1015.8934503417083
2022-09-07T01:28:41.515Z,1015.9010739584949
2022-09-07T01:40:33.719Z,1015.8574877691157
2022-09-07T01:46:55.649Z,1015.8288786298576
2022-09-07T01:53:17.100Z,1015.7823327114277
2022-09-07T01:59:38.653Z,1015.721965956578
2022-09-07T02:06:02.084Z,1015.6872775114025
2022-09-07T02:12:49.996Z,1015.5637162795261
2022-09-07T02:25:24.457Z,1015.4170055270982
2022-09-07T02:33:33.412Z,1015.3458565467471
2022-09-07T02:39:55.243Z,1015.257474938691
2022-09-07T02:51:35.777Z,1015.1888643441662
2022-09-07T02:57:57.697Z,1015.2451999598345
2022-09-07T03:04:19.296Z,1015.9064617769029
2022-09-07T03:10:40.569Z,1016.2967569535691
2022-09-07T03:17:01.994Z,1016.417542116091
2022-09-07T03:23:32.138Z,1016.2060012611893
2022-09-07T03:35:52.902Z,1015.9326716698141
2022-09-07T03:42:15.164Z,1015.9399295499742
2022-09-07T03:48:36.845Z,1015.8497541273696
2022-09-07T03:54:58.641Z,1015.639490112872
2022-09-07T04:04:03.137Z,1015.5634711847289
2022-09-07T04:10:25.110Z,1015.6188496965682
2022-09-07T04:16:47.570Z,1015.6416561951723
2022-09-07T04:25:00.325Z,1015.6987178145827
2022-09-07T04:31:23.457Z,1015.5640003736044
2022-09-07T04:37:45.644Z,1015.5142460704233
2022-09-07T04:51:36.405Z,1015.6489903550666
2022-09-07T04:57:58.482Z,1015.7128931195917
2022-09-07T05:04:20.385Z,1015.6606392459023
2022-09-07T05:10:42.423Z,1015.7053959540541
2022-09-07T05:18:35.714Z,1016.0767843286638
2022-09-07T05:26:32.478Z,1016.0312927758783
2022-09-07T05:32:55.256Z,1016.0511225497057
2022-09-07T05:39:18.233Z,1015.9885208772581
2022-09-07T05:45:43.572Z,1015.8929248244423
2022-09-07T05:59:48.996Z,1015.7161727573206
2022-09-07T06:06:14.465Z,1015.657509411722
2022-09-07T06:12:45.555Z,1015.4518323433508
2022-09-07T06:19:15.897Z,1015.580817413248
2022-09-07T06:31:34.529Z,1015.4631448057802
2022-09-07T06:38:00.948Z,1015.5950468981044
2022-09-07T06:44:28.168Z,1015.4718760892739
2022-09-07T06:50:55.803Z,1015.3829745680832
2022-09-07T06:57:28.014Z,1015.3351575349878
2022-09-07T07:03:58.028Z,1015.3401691176821
2022-09-07T07:10:29.430Z,1015.4270650808786
2022-09-07T07:16:57.751Z,1015.522339503427
2022-09-07T07:23:23.894Z,1015.5128365121828
2022-09-07T07:36:09.662Z,1015.5776033114138
2022-09-07T07:47:11.597Z,1015.6136253762415
2022-09-07T07:53:41.679Z,1015.4719010992782
2022-09-07T08:00:07.899Z,1015.5551647467801
2022-09-07T08:14:04.071Z,1015.7818034219421
2022-09-07T08:20:29.535Z,1015.8547226930007
2022-09-07T08:27:06.613Z,1015.8651735883169
2022-09-07T08:35:30.872Z,1015.8333956617728
2022-09-07T08:46:43.521Z,1015.876287325687
2022-09-07T08:53:05.063Z,1015.8905090977312
2022-09-07T09:01:31.696Z,1015.8724895748742
2022-09-07T09:15:34.743Z,1015.9464544615464
2022-09-07T09:21:56.776Z,1015.9044521238669
2022-09-07T09:28:28.966Z,1015.8884996255861
2022-09-07T09:35:56.392Z,1015.7678164451365
2022-09-07T09:44:21.351Z,1015.6892961375205
2022-09-07T09:52:36.212Z,1015.6615038140931
2022-09-07T09:59:05.115Z,1015.6714804738382
2022-09-07T10:05:27.010Z,1015.6863418171259
2022-09-07T10:12:06.285Z,1015.7407236652574
2022-09-07T10:18:29.389Z,1015.6613566543001
2022-09-07T10:31:40.952Z,1015.4534269933118
2022-09-07T10:43:21.326Z,1015.4345521831275
2022-09-07T10:54:31.379Z,1015.2760885806389
2022-09-07T11:00:53.604Z,1015.2495747114287
2022-09-07T11:10:15.430Z,1015.1958541043159
2022-09-07T11:16:51.680Z,1015.0826426287725
2022-09-07T11:23:25.689Z,1015.0681190387717
2022-09-07T11:29:47.903Z,1015.0302581377201
2022-09-07T11:36:12.409Z,1015.0395901805829
2022-09-07T11:49:04.466Z,1015.0296688747859
2022-09-07T11:55:28.883Z,1015.0553381784921
2022-09-07T12:01:55.581Z,1014.9746717558381
2022-09-07T12:11:36.896Z,1015.0278236532828
2022-09-07T12:19:29.859Z,1014.9288486512479
2022-09-07T12:26:00.095Z,1014.9001774819808
2022-09-07T12:36:33.656Z,1014.8610260601687
2022-09-07T12:49:12.686Z,1014.8283401905996
2022-09-07T12:56:17.333Z,1014.8610048761954
2022-09-07T13:13:07.719Z,1014.8041659220255
2022-09-07T13:19:34.993Z,1014.8274633068886
2022-09-07T13:26:09.686Z,1014.865374640541
2022-09-07T13:33:08.475Z,1014.9241556256142
2022-09-07T13:48:10.969Z,1014.9200772779773
2022-09-07T13:54:33.006Z,1014.9117776599181
2022-09-07T14:00:57.052Z,1014.9099835224125
2022-09-07T14:07:20.174Z,1014.8977041659728
2022-09-07T14:15:51.768Z,1014.8690275828119
2022-09-07T14:22:15.371Z,1014.8346143755583
2022-09-07T14:28:47.841Z,1014.7824064298293
2022-09-07T14:35:10.026Z,1014.7438825145512
2022-09-07T14:41:31.924Z,1014.7220095891837
2022-09-07T14:47:54.457Z,1014.739137115042
2022-09-07T14:54:16.728Z,1014.7275997751738
2022-09-07T15:05:45.296Z,1014.713547726542
2022-09-07T15:18:14.201Z,1014.6619313286252
2022-09-07T15:24:47.768Z,1014.6568834641822
2022-09-07T15:38:02.368Z,1014.6582999658643
2022-09-07T15:44:27.867Z,1014.6318653689601
2022-09-07T16:01:52.713Z,1014.7038907290553
2022-09-07T16:08:26.128Z,1014.6753625353547
2022-09-07T16:17:36.497Z,1014.6487134837821
2022-09-07T16:29:17.690Z,1014.5584507216242
2022-09-07T16:35:39.755Z,1014.5461413433256
2022-09-07T16:42:02.150Z,1014.5544760761566
2022-09-07T16:48:24.362Z,1014.477618215152
2022-09-07T16:54:45.987Z,1014.4492621901112
2022-09-07T17:01:07.919Z,1014.4370556956918
2022-09-07T17:07:29.834Z,1014.4675486872898
2022-09-07T17:13:52.130Z,1014.4554665301409
2022-09-07T17:22:29.687Z,1014.4053459714979
2022-09-07T17:28:55.227Z,1014.3577713545933
2022-09-07T17:35:16.695Z,1014.4579675386218
2022-09-07T17:45:00.804Z,1014.551900068663
2022-09-07T17:51:22.520Z,1014.4937658898634
2022-09-07T18:08:53.357Z,1014.6314277565407
2022-09-07T18:15:18.366Z,1014.713076287912
2022-09-07T18:21:41.768Z,1014.7788068868582
2022-09-07T18:35:04.830Z,1014.6013402381096
2022-09-07T18:41:28.097Z,1014.7188509808691
2022-09-07T18:47:56.353Z,1014.8190404642245
2022-09-07T18:54:22.611Z,1014.8638671318386
2022-09-07T19:00:53.357Z,1014.8602717480352
2022-09-07T19:08:16.013Z,1014.7777610578484
2022-09-07T19:15:42.171Z,1014.8486127873622
2022-09-07T19:22:04.819Z,1014.7197078262027
2022-09-07T19:33:25.208Z,1014.7560586419282
2022-09-07T19:39:46.829Z,1014.8058992031434
2022-09-07T19:46:08.036Z,1014.8575211237305
2022-09-07T20:02:51.424Z,1014.7452715394763
2022-09-07T20:09:59.152Z,1014.7287702880435
2022-09-07T20:16:54.753Z,1014.7210295273429
2022-09-07T20:23:20.825Z,1014.6954067608602
2022-09-07T20:29:43.130Z,1014.712667344093
2022-09-07T20:36:16.717Z,1014.6524945425076
2022-09-07T20:43:11.137Z,1014.5465305180991
2022-09-07T20:55:36.115Z,1014.5032643266052
2022-09-07T21:08:41.107Z,1014.4343738825697
2022-09-07T21:15:20.245Z,1014.4231531930045
2022-09-07T21:50:31.853Z,1014.3777476007301
2022-09-07T21:57:03.850Z,1014.3423978022972
2022-09-07T22:07:18.334Z,1014.3344345044997
2022-09-07T22:14:00.025Z,1014.2674971328225
2022-09-07T22:20:30.499Z,1014.1817407282523
2022-09-07T22:30:20.378Z,1014.1224933079673
2022-09-07T22:44:37.506Z,1014.1130230894242
2022-09-07T22:51:52.186Z,1014.106990236648
2022-09-07T22:58:32.435Z,1014.0194634608954
2022-09-07T23:04:55.487Z,1013.9692117203322
2022-09-07T23:16:34.809Z,1013.8812853939359
2022-09-07T23:23:06.380Z,1013.8130638385946
2022-09-07T23:29:29.150Z,1013.7928211511472
2022-09-07T23:35:51.032Z,1013.7381564439403
2022-09-07T23:45:27.285Z,1013.489899172654
